Aérodrome :
LOGIN :

S'inscrire | Disclaimer

   EN    FR    IT 

 










Légende :    VFR   VFR Marginal   IFR   IFR Intensif   IFR Très Intensif
Visi : 
Plafond : 
>= 8 km
>= 3000ft
5 à 8 km
1000 à 3000 ft
1500m à 5 km
500 à 1000 ft
800 à 1500m
200 à 500 ft
< 800m
< 200 ft
Symboles :   Orages  Brouillard  Fortes neiges  Fortes précipitations  Vent > 20 kt
SIGMETs :   Divers  Orages  Givrage  Turbulence  Onde Orograph.  Cendres Volcan.






- Altitude de l'aérodrome : 277 ft
- Code IATA : JER


EGJJ - Jersey

DERNIER METAR :
  • 041550Z 14013KT CAVOK 16/04 Q1016

METARs EXPIRÉS :
  • 041520Z 14013KT 9999 FEW040 16/04 Q1016
  • 041450Z 14013KT CAVOK 16/05 Q1017
  • 041420Z 15013KT 9999 FEW040 15/05 Q1017
  • 041350Z 15015KT 9999 FEW040 15/05 Q1017
  • 041320Z 14014KT 9999 FEW036 15/06 Q1018

TAF TAF EGJJ
Valide du 04 à 15h jusqu'au 05 à 00h UTC


041357Z 0415/0500 14014KT 9999 FEW040
ATIS : +44 1534 498 073



MET'MAP, la Météo Aéronautique d'un coup d'oeil ! - Copyright ORBIFLY Décembre 2007 - Disclaimer

ORBIFLY MET'MAP TEAM :

Programmation & Développement : Alexandra Zaïnal
Sur une idée originale de : Baudouin d'Aumeries
Assistance à la programmation : Marc-Olivier Méhu
Soutien technique & logistique : Manuel Goepfert

Contact : metmap@orbifly.com




SOURCES & CREDITS :

   NOAA